Time;durP1;ratioP1;P1;durP2;ratioP2;P2;SDS_P1;SDS_P2;PMS_P1;PMS_P2;Temp;Humidity;BMP_temperature;BMP_pressure;BME280_temperature;BME280_humidity;BME280_pressure;Samples;Min_cycle;Max_cycle;Signal;HPM_P1;HPM_P2
2023/07/31 00:01:20;;;;;;;6.70;3.70;;;;;;;25.01;76.90;99581.41;5073370;28;20056;-60
2023/07/31 00:03:51;;;;;;;9.60;4.13;;;;;;;24.91;77.40;99590.28;5062566;28;20138;-60
2023/07/31 00:06:22;;;;;;;10.00;3.53;;;;;;;24.96;78.19;99590.72;5073601;28;20132;-60
2023/07/31 00:08:54;;;;;;;7.87;3.50;;;;;;;25.15;78.67;99594.44;5062953;28;20056;-61
2023/07/31 00:11:24;;;;;;;4.50;3.00;;;;;;;25.33;76.73;99589.31;5075438;28;20466;-61
2023/07/31 00:13:55;;;;;;;4.40;2.90;;;;;;;25.35;76.43;99588.19;5062875;28;20044;-61
2023/07/31 00:16:26;;;;;;;3.93;2.40;;;;;;;25.29;74.91;99599.44;5072207;28;20048;-60
2023/07/31 00:18:57;;;;;;;6.43;2.90;;;;;;;25.11;74.64;99595.66;5061964;28;20094;-60
2023/07/31 00:21:27;;;;;;;5.03;2.57;;;;;;;24.95;75.26;99607.72;5072567;28;20044;-61
2023/07/31 00:23:59;;;;;;;18.87;2.63;;;;;;;24.83;75.31;99598.06;5063432;28;20132;-60
2023/07/31 00:26:30;;;;;;;3.67;2.67;;;;;;;24.83;74.81;99595.41;5072076;28;20084;-60
2023/07/31 00:29:00;;;;;;;2.50;1.90;;;;;;;24.94;74.90;99600.69;5062021;28;20036;-61
2023/07/31 00:31:31;;;;;;;2.93;2.20;;;;;;;25.20;75.13;99594.91;5073541;28;20058;-60
2023/07/31 00:34:02;;;;;;;3.27;2.30;;;;;;;25.43;73.42;99600.03;5063289;28;20047;-60
2023/07/31 00:36:32;;;;;;;2.80;1.93;;;;;;;25.43;71.51;99597.38;5072871;28;20091;-61
2023/07/31 00:39:05;;;;;;;4.20;2.10;;;;;;;25.76;72.87;99602.38;5062041;28;20078;-60
2023/07/31 00:41:35;;;;;;;3.40;2.40;;;;;;;26.07;68.36;99566.66;5072216;28;20055;-60
2023/07/31 00:44:06;;;;;;;6.90;2.40;;;;;;;26.24;68.61;99593.56;5062460;28;20056;-60
2023/07/31 00:46:36;;;;;;;3.00;2.20;;;;;;;26.11;67.26;99584.09;5072431;28;20052;-60
2023/07/31 00:49:08;;;;;;;7.13;2.40;;;;;;;26.10;67.57;99587.78;5062638;28;20048;-60
2023/07/31 00:51:38;;;;;;;3.80;2.17;;;;;;;25.94;67.14;99589.19;5073868;28;20127;-61
2023/07/31 00:54:11;;;;;;;3.57;2.20;;;;;;;25.80;67.95;99593.06;5061560;28;20416;-61
2023/07/31 00:56:43;;;;;;;3.80;2.63;;;;;;;25.76;68.11;99580.09;5071848;28;20044;-60
2023/07/31 00:59:14;;;;;;;6.17;2.53;;;;;;;25.77;69.22;99588.00;5061358;28;20200;-59
2023/07/31 01:01:44;;;;;;;5.30;1.90;;;;;;;25.83;70.63;99592.81;5069827;28;21118;-59
2023/07/31 01:04:15;;;;;;;3.57;2.40;;;;;;;25.86;70.25;99601.56;5072370;28;20386;-60
2023/07/31 01:06:53;;;;;;;5.63;2.33;;;;;;;26.22;68.67;99608.91;5063038;28;20172;-59
2023/07/31 01:09:38;;;;;;;3.15;2.50;;;;;;;26.22;67.59;99603.56;5070640;28;20565;-59
2023/07/31 01:12:11;;;;;;;4.33;2.00;;;;;;;26.06;67.90;99611.31;5061954;28;20054;-59
2023/07/31 01:14:42;;;;;;;2.70;1.93;;;;;;;25.97;68.24;99614.84;5072446;28;20211;-62
2023/07/31 01:17:12;;;;;;;2.83;2.27;;;;;;;25.78;69.48;99600.38;5060390;28;20522;-60
2023/07/31 01:19:43;;;;;;;3.07;2.20;;;;;;;26.07;70.84;99610.31;5072717;28;20032;-59
2023/07/31 01:22:46;;;;;;;5.33;2.23;;;;;;;26.58;68.79;99619.88;5059257;28;20127;-60
2023/07/31 01:25:35;;;;;;;5.30;2.17;;;;;;;26.49;69.30;99614.53;5018358;28;20043;-61
2023/07/31 01:28:09;;;;;;;;;;;;;;;26.42;68.97;99619.63;5060127;28;20121;-62
2023/07/31 01:30:43;;;;;;;6.43;3.67;;;;;;;26.23;69.51;99615.97;5071950;28;19916;-62
2023/07/31 01:33:14;;;;;;;6.97;2.80;;;;;;;26.25;68.24;99619.34;5060548;28;20092;-60
2023/07/31 01:35:47;;;;;;;11.10;3.40;;;;;;;26.52;68.45;99617.78;5065307;28;20047;-60
2023/07/31 01:38:22;;;;;;;19.63;6.27;;;;;;;26.83;67.92;99617.59;5071446;28;20054;-61
2023/07/31 01:40:54;;;;;;;9.00;4.50;;;;;;;26.55;67.28;99533.63;5062353;28;20040;-61
2023/07/31 01:43:26;;;;;;;4.57;2.43;;;;;;;27.10;66.67;99609.59;5070388;28;20472;-62
2023/07/31 01:45:56;;;;;;;3.77;2.50;;;;;;;27.24;65.95;99615.53;5061508;28;20054;-62
2023/07/31 01:48:27;;;;;;;3.30;2.20;;;;;;;27.43;64.47;99610.06;5069226;28;20423;-61
2023/07/31 01:50:57;;;;;;;3.80;2.10;;;;;;;27.25;64.84;99611.81;5061442;28;20036;-60
2023/07/31 01:53:28;;;;;;;5.73;2.50;;;;;;;27.13;65.22;99608.44;5072293;28;20446;-62
2023/07/31 01:55:58;;;;;;;9.93;2.37;;;;;;;26.97;65.60;99603.72;5061785;28;20094;-62
2023/07/31 01:58:30;;;;;;;3.17;2.20;;;;;;;26.77;66.11;99591.38;5070831;28;20077;-60
2023/07/31 02:01:01;;;;;;;4.97;2.00;;;;;;;26.36;65.94;99612.13;5060633;28;20430;-62
2023/07/31 02:03:32;;;;;;;9.10;2.63;;;;;;;26.00;66.84;99615.38;5070445;28;20138;-61
2023/07/31 02:06:02;;;;;;;9.90;3.37;;;;;;;25.90;66.51;99619.03;5060283;28;20446;-62
2023/07/31 02:08:33;;;;;;;13.07;3.63;;;;;;;26.17;66.83;99611.16;5070607;28;20043;-61
2023/07/31 02:11:04;;;;;;;7.93;2.77;;;;;;;26.55;63.72;99614.00;5061862;28;20141;-61
2023/07/31 02:13:36;;;;;;;6.03;2.57;;;;;;;26.73;62.13;99619.44;5071645;28;20373;-60
2023/07/31 02:16:06;;;;;;;7.67;3.13;;;;;;;26.95;62.38;99620.94;5059221;28;20054;-62
2023/07/31 02:18:37;;;;;;;5.93;2.60;;;;;;;26.98;61.66;99618.81;5071202;28;20067;-63
2023/07/31 02:21:07;;;;;;;6.13;2.57;;;;;;;26.89;61.73;99606.31;5059385;28;20139;-63
2023/07/31 02:23:38;;;;;;;13.77;3.33;;;;;;;26.88;62.50;99620.69;5069725;28;20047;-62
2023/07/31 02:26:08;;;;;;;3.63;2.23;;;;;;;26.82;61.64;99626.63;5060433;28;20068;-61
2023/07/31 02:28:42;;;;;;;7.37;2.10;;;;;;;26.54;62.87;99637.25;5071071;28;20056;-60
2023/07/31 02:31:13;;;;;;;3.87;1.90;;;;;;;26.56;63.85;99640.66;5059438;28;20050;-60
2023/07/31 02:33:44;;;;;;;4.00;1.50;;;;;;;26.09;63.55;99645.00;5069093;28;20079;-60
2023/07/31 02:36:15;;;;;;;6.97;1.80;;;;;;;25.91;65.25;99663.53;5060593;28;20130;-61
2023/07/31 02:38:45;;;;;;;4.23;1.70;;;;;;;25.66;67.82;99663.06;5061115;28;20071;-60
2023/07/31 02:41:15;;;;;;;3.20;1.80;;;;;;;25.77;67.59;99662.94;5070888;28;20174;-61
2023/07/31 02:43:48;;;;;;;6.37;1.80;;;;;;;25.81;67.88;99669.72;5059251;28;20051;-61
2023/07/31 02:46:18;;;;;;;8.40;2.97;;;;;;;25.74;65.34;99668.56;5070318;28;20497;-62
2023/07/31 02:48:49;;;;;;;7.33;3.00;;;;;;;25.58;65.11;99673.56;5059542;28;20056;-60
2023/07/31 02:51:21;;;;;;;8.70;2.93;;;;;;;25.60;65.39;99666.25;5070027;28;20043;-60
2023/07/31 02:53:51;;;;;;;6.70;3.47;;;;;;;25.58;65.51;99678.94;5056831;28;20063;-59
2023/07/31 02:56:22;;;;;;;6.40;3.40;;;;;;;25.65;64.57;99685.44;5069191;28;20063;-61
2023/07/31 02:58:54;;;;;;;5.83;3.60;;;;;;;25.67;66.03;99683.47;5059223;28;20073;-59
2023/07/31 03:01:24;;;;;;;10.60;3.70;;;;;;;25.91;65.79;99690.31;5069450;28;20146;-59
2023/07/31 03:03:55;;;;;;;6.50;3.50;;;;;;;25.60;66.00;99683.16;5059413;28;20047;-61
2023/07/31 03:06:27;;;;;;;11.50;4.00;;;;;;;25.45;66.76;99684.50;5069193;28;20044;-59
2023/07/31 03:08:57;;;;;;;5.90;2.93;;;;;;;25.29;66.79;99679.66;5059234;28;20065;-60
2023/07/31 03:11:28;;;;;;;8.67;4.37;;;;;;;24.92;65.48;99682.81;5069442;28;20045;-60
2023/07/31 03:14:00;;;;;;;6.97;3.73;;;;;;;24.56;67.64;99692.09;5060338;28;20087;-60
2023/07/31 03:16:30;;;;;;;10.17;4.17;;;;;;;24.59;69.43;99680.31;5069746;28;20048;-60
2023/07/31 03:19:01;;;;;;;11.40;4.53;;;;;;;24.62;67.07;99680.06;5059926;28;20097;-59
2023/07/31 03:21:31;;;;;;;10.20;5.27;;;;;;;24.57;68.07;99679.63;5070258;28;20063;-59
2023/07/31 03:24:02;;;;;;;8.73;5.27;;;;;;;24.80;68.67;99686.53;5056402;28;20138;-59
2023/07/31 03:26:34;;;;;;;8.23;5.60;;;;;;;24.93;66.44;99681.81;5069814;28;20126;-59
2023/07/31 03:29:06;;;;;;;9.53;5.87;;;;;;;25.07;65.25;99664.59;5059939;28;20056;-60
2023/07/31 03:31:36;;;;;;;12.27;6.60;;;;;;;25.25;63.56;99678.22;5070042;28;20083;-60
2023/07/31 03:34:08;;;;;;;9.83;6.17;;;;;;;25.32;63.92;99687.41;5059651;28;20044;-60
2023/07/31 03:36:39;;;;;;;8.77;6.10;;;;;;;25.46;64.00;99693.38;5069976;28;20071;-61
2023/07/31 03:39:10;;;;;;;9.80;5.80;;;;;;;25.47;63.46;99687.91;5058712;28;20139;-59
2023/07/31 03:41:41;;;;;;;12.77;6.13;;;;;;;25.52;63.19;99695.53;5068641;28;20055;-58
2023/07/31 03:44:13;;;;;;;9.60;5.80;;;;;;;25.61;64.28;99689.38;5057576;28;20039;-60
2023/07/31 03:46:43;;;;;;;10.27;5.33;;;;;;;25.79;63.02;99694.91;5070102;28;20082;-60
2023/07/31 03:49:14;;;;;;;8.93;4.87;;;;;;;25.93;64.14;99709.75;5059221;28;20246;-59
2023/07/31 03:51:44;;;;;;;16.63;4.93;;;;;;;25.83;62.78;99710.56;5065996;28;20040;-60
2023/07/31 03:54:15;;;;;;;7.70;4.87;;;;;;;25.89;64.22;99711.03;5085883;28;20400;-61
2023/07/31 03:56:45;;;;;;;8.80;4.80;;;;;;;25.86;65.93;99708.63;5085180;28;20442;-60
2023/07/31 03:59:18;;;;;;;8.40;4.40;;;;;;;25.56;64.61;99713.84;5096938;28;20374;-59
2023/07/31 04:01:49;;;;;;;11.07;5.33;;;;;;;25.50;64.98;99718.88;5077677;28;20047;-61
2023/07/31 04:04:19;;;;;;;10.93;4.03;;;;;;;25.35;66.23;99732.59;5086806;28;20530;-60
2023/07/31 04:06:50;;;;;;;7.63;4.63;;;;;;;25.18;65.53;99730.53;5095749;28;20459;-61
2023/07/31 04:09:21;;;;;;;12.37;5.50;;;;;;;25.17;66.70;99729.69;5105401;28;20065;-61
2023/07/31 04:11:51;;;;;;;8.67;5.00;;;;;;;25.19;65.85;99732.25;5083863;28;20040;-61
2023/07/31 04:14:23;;;;;;;16.00;5.83;;;;;;;25.13;66.45;99730.06;5094757;28;20053;-60
2023/07/31 04:16:54;;;;;;;9.30;5.70;;;;;;;25.07;66.72;99733.25;5081031;28;20035;-60
2023/07/31 04:19:27;;;;;;;13.67;4.70;;;;;;;25.05;66.09;99736.06;5101241;28;20040;-60
2023/07/31 04:21:58;;;;;;;10.57;5.43;;;;;;;25.04;66.67;99717.50;5096512;28;20101;-60
2023/07/31 04:24:31;;;;;;;7.40;4.70;;;;;;;24.96;66.15;99721.66;5096540;28;20072;-60
2023/07/31 04:27:02;;;;;;;10.53;5.33;;;;;;;24.97;66.98;99723.34;5096767;28;20054;-60
2023/07/31 04:29:34;;;;;;;10.03;5.40;;;;;;;25.01;66.82;99731.09;5115853;28;20040;-62
2023/07/31 04:32:04;;;;;;;9.77;5.20;;;;;;;25.08;66.93;99726.94;5070027;28;20069;-61
2023/07/31 04:34:35;;;;;;;8.13;5.27;;;;;;;25.02;67.23;99735.47;5081741;28;20047;-60
2023/07/31 04:37:06;;;;;;;10.43;5.20;;;;;;;25.03;67.19;99731.81;5071634;28;20047;-59
2023/07/31 04:39:39;;;;;;;10.87;4.83;;;;;;;24.93;67.74;99735.25;5092040;28;20057;-60
2023/07/31 04:42:09;;;;;;;9.57;5.50;;;;;;;24.73;68.25;99741.44;5074501;28;20063;-61
2023/07/31 04:44:41;;;;;;;10.70;4.93;;;;;;;24.71;68.17;99732.72;5085182;28;20052;-60
2023/07/31 04:47:12;;;;;;;7.10;5.10;;;;;;;24.90;67.89;99730.19;5082722;28;20044;-61
2023/07/31 04:49:42;;;;;;;9.43;5.33;;;;;;;25.05;68.58;99729.88;5088085;28;20508;-62
2023/07/31 04:52:13;;;;;;;8.73;5.53;;;;;;;25.04;68.48;99738.88;5075450;28;20157;-60
2023/07/31 04:54:44;;;;;;;8.73;4.67;;;;;;;24.91;67.45;99739.91;5087741;28;20071;-62
2023/07/31 04:57:14;;;;;;;9.63;5.03;;;;;;;24.90;66.52;99743.53;5093752;28;20139;-62
2023/07/31 04:59:46;;;;;;;12.03;5.27;;;;;;;25.08;67.21;99737.63;5089725;28;20449;-60
2023/07/31 05:02:19;;;;;;;11.40;4.73;;;;;;;25.08;65.41;99741.13;5082199;28;20051;-64
2023/07/31 05:04:50;;;;;;;13.07;5.00;;;;;;;25.18;65.69;99741.22;5084185;28;20078;-60
2023/07/31 05:07:20;;;;;;;9.67;4.47;;;;;;;25.26;65.78;99745.91;5104733;28;20047;-62
2023/07/31 05:09:51;;;;;;;11.90;5.47;;;;;;;25.25;66.68;99742.41;5116133;28;20104;-61
2023/07/31 05:12:21;;;;;;;11.00;5.20;;;;;;;25.12;64.22;99741.75;5083909;28;20047;-59
2023/07/31 05:14:53;;;;;;;8.10;4.40;;;;;;;25.07;65.71;99738.59;5072376;28;20496;-61
2023/07/31 05:17:24;;;;;;;10.07;5.30;;;;;;;25.18;64.46;99749.25;5092363;28;20040;-63
2023/07/31 05:19:55;;;;;;;9.67;4.83;;;;;;;25.34;64.97;99746.97;5080709;28;20044;-62
2023/07/31 05:22:25;;;;;;;6.57;4.63;;;;;;;25.48;63.99;99736.88;5109609;28;20039;-61
2023/07/31 05:24:56;;;;;;;11.40;4.93;;;;;;;25.64;63.86;99747.97;5115805;28;20086;-61
2023/07/31 05:27:26;;;;;;;13.33;5.50;;;;;;;25.52;63.13;99744.53;5111243;28;20048;-60
2023/07/31 05:29:58;;;;;;;11.50;4.90;;;;;;;25.42;62.27;99740.13;5102284;28;20036;-61
2023/07/31 05:32:29;;;;;;;8.67;5.17;;;;;;;25.36;61.33;99746.81;5116090;28;20089;-61
2023/07/31 05:35:00;;;;;;;7.40;5.27;;;;;;;25.36;62.69;99739.66;5088513;28;20385;-60
2023/07/31 05:37:30;;;;;;;11.03;5.10;;;;;;;25.23;63.24;99730.97;5083330;28;20051;-59
2023/07/31 05:40:01;;;;;;;10.40;5.13;;;;;;;25.34;62.94;99733.59;5066908;28;20047;-60
2023/07/31 05:42:32;;;;;;;7.37;4.50;;;;;;;25.39;62.98;99731.38;5074836;28;20051;-60
2023/07/31 05:45:04;;;;;;;18.83;5.33;;;;;;;25.33;66.54;99733.72;5070495;28;20452;-60
2023/07/31 05:47:35;;;;;;;10.33;4.97;;;;;;;25.21;67.57;99687.53;5077070;28;20062;-62
2023/07/31 05:50:06;;;;;;;6.33;4.20;;;;;;;25.24;67.12;99730.03;5068066;28;20126;-61
2023/07/31 05:52:36;;;;;;;10.37;4.30;;;;;;;25.26;67.85;99733.41;5084475;28;20047;-59
2023/07/31 05:55:08;;;;;;;13.07;5.00;;;;;;;25.29;65.09;99738.50;5077182;28;20472;-60
2023/07/31 05:57:38;;;;;;;13.27;4.20;;;;;;;25.27;67.61;99732.44;5076830;28;20335;-60
2023/07/31 06:00:12;;;;;;;7.83;3.87;;;;;;;25.19;66.98;99724.22;5069595;28;20122;-60
2023/07/31 06:02:42;;;;;;;10.43;3.90;;;;;;;25.24;68.41;99740.72;5078717;28;20079;-60
2023/07/31 06:05:13;;;;;;;12.27;4.10;;;;;;;25.19;67.51;99734.94;5071646;28;20043;-61
2023/07/31 06:07:43;;;;;;;17.27;4.47;;;;;;;25.14;67.08;99734.44;5078352;28;20538;-60
2023/07/31 06:10:14;;;;;;;10.80;4.10;;;;;;;25.13;67.54;99732.72;5078169;28;20035;-60
2023/07/31 06:12:44;;;;;;;8.57;4.63;;;;;;;25.06;67.77;99737.78;5087483;28;20130;-60
2023/07/31 06:15:17;;;;;;;10.67;4.10;;;;;;;25.17;68.20;99736.88;5085939;28;20043;-60
2023/07/31 06:17:48;;;;;;;9.27;4.17;;;;;;;25.30;67.76;99734.00;5079286;28;20089;-59
2023/07/31 06:20:19;;;;;;;8.73;4.00;;;;;;;25.28;66.88;99727.91;5087452;28;20054;-60
2023/07/31 06:22:50;;;;;;;10.40;4.13;;;;;;;25.21;67.93;99735.66;5071707;28;20138;-59
2023/07/31 06:25:20;;;;;;;17.10;4.40;;;;;;;25.14;66.76;99729.09;5084067;28;20192;-61
2023/07/31 06:27:51;;;;;;;10.57;4.43;;;;;;;25.14;66.97;99731.75;5093867;28;20050;-61
2023/07/31 06:30:23;;;;;;;7.03;4.37;;;;;;;25.04;67.04;99718.34;5093838;28;20462;-59
2023/07/31 06:32:53;;;;;;;8.10;4.43;;;;;;;25.31;68.35;99733.88;5093161;28;20356;-60
2023/07/31 06:35:24;;;;;;;8.60;4.47;;;;;;;25.35;64.59;99735.28;5086269;28;20050;-61
2023/07/31 06:37:54;;;;;;;9.00;4.60;;;;;;;25.39;65.10;99728.69;5081667;28;20086;-61
2023/07/31 06:40:25;;;;;;;10.93;4.80;;;;;;;25.33;65.68;99729.22;5110169;28;20040;-61
2023/07/31 06:42:56;;;;;;;12.70;4.70;;;;;;;25.42;66.90;99743.63;5062353;28;20050;-60
2023/07/31 06:45:28;;;;;;;8.87;5.23;;;;;;;25.36;64.08;99734.31;5073512;28;20051;-60
2023/07/31 06:48:01;;;;;;;8.20;4.50;;;;;;;25.18;64.91;99741.22;5096390;28;20039;-60
2023/07/31 06:50:31;;;;;;;10.03;4.77;;;;;;;25.13;66.65;99738.06;5085696;28;20044;-61
2023/07/31 06:53:02;;;;;;;12.13;4.83;;;;;;;25.12;66.22;99744.41;5081270;28;20138;-61
2023/07/31 06:55:33;;;;;;;7.20;4.60;;;;;;;25.11;67.53;99750.72;5092845;28;20051;-59
2023/07/31 06:58:03;;;;;;;8.93;4.93;;;;;;;25.10;67.85;99760.56;5081453;28;20047;-60
2023/07/31 07:00:35;;;;;;;8.50;4.67;;;;;;;25.09;67.64;99758.03;5092681;28;20047;-60
2023/07/31 07:03:06;;;;;;;10.80;4.33;;;;;;;25.04;68.16;99749.56;5080880;28;20080;-60
2023/07/31 07:05:36;;;;;;;6.83;4.63;;;;;;;25.02;68.56;99762.22;5081386;28;20047;-60
2023/07/31 07:08:07;;;;;;;7.03;4.07;;;;;;;25.10;68.10;99749.03;5061750;28;20036;-59
2023/07/31 07:10:38;;;;;;;12.53;5.27;;;;;;;25.19;67.43;99758.97;5072189;28;20500;-60
2023/07/31 07:13:09;;;;;;;8.97;4.20;;;;;;;25.12;67.16;99753.28;5072167;28;20096;-61
2023/07/31 07:15:41;;;;;;;7.40;4.40;;;;;;;25.17;67.07;99768.97;5082952;28;20086;-58
2023/07/31 07:18:12;;;;;;;8.70;4.87;;;;;;;25.21;67.37;99757.03;5067699;28;20090;-61
2023/07/31 07:20:49;;;;;;;9.23;4.70;;;;;;;25.08;66.90;99764.34;5071499;28;20047;-62
2023/07/31 07:23:20;;;;;;;9.03;4.70;;;;;;;25.06;67.17;99763.63;5071673;28;20051;-60
2023/07/31 07:25:51;;;;;;;8.57;4.50;;;;;;;24.95;66.81;99781.41;5066442;28;20050;-62
2023/07/31 07:28:21;;;;;;;8.63;5.07;;;;;;;24.82;67.23;99771.91;5110589;28;20046;-61
2023/07/31 07:30:55;;;;;;;9.60;4.53;;;;;;;24.63;68.17;99745.88;5117326;28;20092;-61
2023/07/31 07:33:26;;;;;;;10.47;4.87;;;;;;;24.83;68.61;99774.44;5118141;28;20043;-61
2023/07/31 07:35:56;;;;;;;6.87;4.47;;;;;;;24.87;68.07;99775.88;5117349;28;20131;-61
2023/07/31 07:38:27;;;;;;;8.43;4.47;;;;;;;24.83;68.36;99779.78;5117594;28;20131;-61
2023/07/31 07:40:58;;;;;;;7.07;4.57;;;;;;;24.80;69.52;99785.38;5117920;28;20048;-61
2023/07/31 07:43:28;;;;;;;9.57;4.77;;;;;;;24.56;68.84;99758.03;5081047;28;20048;-61
2023/07/31 07:46:01;;;;;;;5.40;3.40;;;;;;;24.71;69.15;99796.81;5065413;28;20093;-61
2023/07/31 07:48:32;;;;;;;7.37;4.10;;;;;;;24.54;69.72;99801.75;5097128;28;20890;-60
2023/07/31 07:51:02;;;;;;;6.20;3.87;;;;;;;24.51;70.40;99802.00;5095934;28;20048;-59
2023/07/31 07:53:33;;;;;;;8.43;3.63;;;;;;;24.57;70.64;99806.00;5097652;28;20040;-61
2023/07/31 07:56:03;;;;;;;7.20;4.57;;;;;;;24.57;70.22;99807.81;5097371;28;20047;-61
2023/07/31 07:58:34;;;;;;;7.13;4.40;;;;;;;24.45;70.40;99801.63;5099318;28;20048;-61
2023/07/31 08:01:06;;;;;;;7.00;3.57;;;;;;;23.93;70.90;99712.44;5100840;28;20142;-61
2023/07/31 08:03:37;;;;;;;11.20;5.43;;;;;;;24.57;71.38;99813.16;5110612;28;20043;-61
2023/07/31 08:06:09;;;;;;;7.53;3.47;;;;;;;24.62;70.81;99821.66;5071181;28;20039;-60
2023/07/31 08:08:39;;;;;;;6.33;3.60;;;;;;;24.53;70.65;99815.22;5083413;28;20318;-60
2023/07/31 08:11:10;;;;;;;6.47;3.80;;;;;;;24.46;70.60;99830.03;5072948;28;20039;-60
2023/07/31 08:13:40;;;;;;;7.63;3.00;;;;;;;24.53;71.22;99842.78;5085351;28;20047;-60
2023/07/31 08:16:13;;;;;;;8.23;3.33;;;;;;;24.33;71.80;99846.19;5067826;28;20035;-60
2023/07/31 08:18:43;;;;;;;9.70;4.10;;;;;;;24.19;72.22;99849.09;5094494;28;20374;-61
2023/07/31 08:21:14;;;;;;;6.67;3.83;;;;;;;24.19;72.21;99844.63;5110127;28;20462;-60
2023/07/31 08:23:45;;;;;;;5.10;3.53;;;;;;;24.01;72.54;99852.28;5101944;28;20477;-60
2023/07/31 08:26:17;;;;;;;7.03;4.30;;;;;;;23.86;72.65;99842.78;5099319;28;20094;-60
2023/07/31 08:28:48;;;;;;;6.13;3.87;;;;;;;23.75;73.22;99846.31;5088661;28;20066;-60
2023/07/31 08:31:21;;;;;;;4.87;3.90;;;;;;;23.71;73.81;99842.13;5094038;28;20369;-60
2023/07/31 08:33:51;;;;;;;6.53;4.47;;;;;;;23.67;73.80;99857.53;5083802;28;20039;-60
2023/07/31 08:36:22;;;;;;;6.07;4.27;;;;;;;23.49;74.52;99861.66;5089615;28;20075;-60
2023/07/31 08:38:52;;;;;;;33.20;20.10;;;;;;;23.40;75.62;99867.66;5116401;28;20039;-61
2023/07/31 08:41:23;;;;;;;17.23;8.80;;;;;;;23.32;76.21;99864.75;5103942;28;20142;-61
2023/07/31 08:43:56;;;;;;;8.87;4.23;;;;;;;23.48;76.96;99867.91;5083112;28;20043;-60
2023/07/31 08:46:29;;;;;;;13.50;4.20;;;;;;;23.54;76.94;99879.94;5091639;28;20051;-60
2023/07/31 08:49:01;;;;;;;8.50;3.70;;;;;;;23.69;75.92;99882.28;5071043;28;20101;-60
2023/07/31 08:51:32;;;;;;;10.50;4.77;;;;;;;23.57;75.44;99880.56;5099255;28;20093;-61
2023/07/31 08:54:04;;;;;;;7.40;4.80;;;;;;;23.24;75.54;99873.31;5082647;28;20063;-60
2023/07/31 08:56:36;;;;;;;10.00;6.37;;;;;;;23.11;76.66;99884.03;5085802;28;20046;-61
2023/07/31 08:59:08;;;;;;;6.40;3.80;;;;;;;22.92;77.46;99883.69;5083960;28;20040;-61
2023/07/31 09:01:48;;;;;;;27.50;17.23;;;;;;;22.79;78.64;99883.75;5108966;28;20075;-60
2023/07/31 09:04:23;;;;;;;120.27;68.60;;;;;;;22.64;79.38;99891.03;5103435;28;20035;-60
2023/07/31 09:07:14;;;;;;;42.80;26.87;;;;;;;22.56;80.06;99896.03;5071933;28;20068;-60
2023/07/31 09:09:48;;;;;;;13.13;7.47;;;;;;;22.45;79.74;99895.97;5071158;28;20052;-60
2023/07/31 09:12:24;;;;;;;12.03;6.00;;;;;;;21.81;80.42;99819.72;5082772;28;20075;-59
2023/07/31 09:14:59;;;;;;;13.33;7.00;;;;;;;22.43;80.62;99908.53;5065619;28;20097;-61
2023/07/31 09:17:33;;;;;;;9.17;4.50;;;;;;;22.50;80.59;99909.81;5076677;28;20139;-61
2023/07/31 09:20:19;;;;;;;6.93;4.83;;;;;;;22.48;80.45;99911.72;5077838;28;20049;-60
2023/07/31 09:23:07;;;;;;;8.40;4.47;;;;;;;22.53;80.55;99910.44;5075253;28;20059;-62
2023/07/31 09:26:08;;;;;;;8.90;4.47;;;;;;;22.68;79.87;99897.81;5041742;28;20047;-60
2023/07/31 09:28:48;;;;;;;9.20;4.03;;;;;;;22.78;80.14;99896.19;5085671;28;20048;-61
2023/07/31 09:31:34;;;;;;;11.53;3.90;;;;;;;22.80;80.65;99896.94;5111212;28;20058;-59
2023/07/31 09:34:11;;;;;;;6.03;3.97;;;;;;;22.80;80.51;99901.41;5076391;28;20050;-61
2023/07/31 09:36:46;;;;;;;11.80;4.70;;;;;;;22.75;80.59;99904.41;5074183;28;20097;-64
2023/07/31 09:39:58;;;;;;;11.13;4.50;;;;;;;22.60;81.25;99884.22;5063962;28;20055;-61
2023/07/31 09:42:42;;;;;;;14.50;4.53;;;;;;;22.39;82.54;99892.78;5084590;28;20048;-61
2023/07/31 09:45:18;;;;;;;7.93;4.10;;;;;;;22.29;84.05;99899.72;5095617;28;20074;-61
2023/07/31 09:48:01;;;;;;;7.33;4.10;;;;;;;22.26;84.98;99904.41;5097480;28;20139;-62
2023/07/31 09:50:36;;;;;;;15.13;4.50;;;;;;;22.10;85.53;99908.13;5077780;28;20090;-61
2023/07/31 09:53:20;;;;;;;9.05;4.40;;;;;;;21.97;86.36;99908.13;5073553;28;20434;-61
2023/07/31 09:55:55;;;;;;;10.33;4.30;;;;;;;21.90;87.36;99904.19;5069748;28;20071;-61
2023/07/31 09:58:27;;;;;;;12.07;5.77;;;;;;;21.81;88.31;99910.13;5078174;28;20047;-59
2023/07/31 10:01:04;;;;;;;21.03;5.13;;;;;;;21.77;89.06;99919.28;5077410;28;20039;-59
2023/07/31 10:03:54;;;;;;;14.33;5.27;;;;;;;21.87;88.47;99920.38;5075796;28;20036;-60
2023/07/31 10:06:27;;;;;;;10.67;4.80;;;;;;;21.84;88.16;99923.25;5077873;28;20071;-60
2023/07/31 10:08:59;;;;;;;10.40;4.80;;;;;;;21.69;88.52;99924.25;5073516;28;20117;-60
2023/07/31 10:11:45;;;;;;;13.07;4.37;;;;;;;21.56;89.84;99923.41;5094552;28;20044;-60
2023/07/31 10:14:18;;;;;;;18.53;4.33;;;;;;;21.47;90.51;99936.38;5094765;28;20086;-60
2023/07/31 10:16:57;;;;;;;10.50;4.63;;;;;;;21.36;90.58;99930.88;5095012;28;20047;-60
2023/07/31 10:19:31;;;;;;;15.20;4.47;;;;;;;21.32;90.95;99953.31;5092267;28;20051;-60
2023/07/31 10:22:06;;;;;;;9.87;4.33;;;;;;;21.19;91.30;99941.75;5081382;28;20047;-60
2023/07/31 10:24:46;;;;;;;15.63;4.33;;;;;;;21.10;91.68;99949.38;5093359;28;20057;-60
2023/07/31 10:27:19;;;;;;;16.30;3.83;;;;;;;21.08;92.10;99951.28;5092878;28;20089;-60
2023/07/31 10:30:02;;;;;;;11.80;4.00;;;;;;;21.10;92.22;99962.66;5079633;28;20089;-60
2023/07/31 10:32:52;;;;;;;15.83;4.43;;;;;;;21.04;92.61;99962.19;5085805;28;20277;-61
2023/07/31 10:35:28;;;;;;;19.33;3.73;;;;;;;20.99;93.11;99973.16;5062985;28;20266;-61
2023/07/31 10:41:19;;;;;;;19.00;4.30;;;;;;;20.85;93.78;99976.66;5080912;28;20071;-60
2023/07/31 10:43:50;;;;;;;13.55;4.47;;;;;;;20.79;94.00;99978.84;5079944;28;20286;-60
2023/07/31 10:46:32;;;;;;;11.40;4.17;;;;;;;20.62;94.43;99964.84;5069932;28;20047;-59
2023/07/31 10:49:05;;;;;;;14.60;4.53;;;;;;;20.77;94.16;99994.06;5058861;28;20347;-60
2023/07/31 10:51:38;;;;;;;12.77;4.83;;;;;;;20.71;94.41;99999.72;5068812;28;20324;-59
2023/07/31 10:54:17;;;;;;;10.80;4.50;;;;;;;20.57;94.62;99993.50;5059378;28;20290;-60
2023/07/31 10:56:52;;;;;;;12.10;4.10;;;;;;;20.57;94.90;100004.13;5060338;28;20335;-60
2023/07/31 10:59:29;;;;;;;17.37;4.00;;;;;;;20.52;95.16;99999.97;5071371;28;20434;-60
2023/07/31 11:02:03;;;;;;;14.80;4.40;;;;;;;20.48;94.98;99994.03;5060299;28;20307;-60
2023/07/31 11:04:45;;;;;;;11.90;3.87;;;;;;;20.39;95.34;99999.88;5070398;28;20280;-59
2023/07/31 11:07:17;;;;;;;19.80;4.50;;;;;;;20.37;95.56;99997.34;5060592;28;20297;-60
2023/07/31 11:09:51;;;;;;;16.30;5.17;;;;;;;20.31;95.40;100004.81;5058781;28;20380;-60
2023/07/31 11:15:44;;;;;;;18.87;4.67;;;;;;;20.23;95.22;99999.97;5071029;28;20278;-60
2023/07/31 11:18:18;;;;;;;12.73;4.60;;;;;;;20.16;95.04;99999.47;5059623;28;20295;-60
2023/07/31 11:20:53;;;;;;;21.57;4.47;;;;;;;20.02;95.38;99999.47;5058452;28;20278;-60
2023/07/31 11:23:28;;;;;;;18.43;5.80;;;;;;;19.97;95.71;99998.91;5069217;28;20604;-60
2023/07/31 11:26:04;;;;;;;15.73;4.87;;;;;;;20.01;95.34;100003.06;5060271;28;20817;-60
2023/07/31 11:28:38;;;;;;;22.80;4.83;;;;;;;19.96;95.22;100002.47;5069329;28;20601;-59
2023/07/31 11:31:13;;;;;;;15.50;4.60;;;;;;;19.82;94.97;99998.88;5058042;28;20277;-60
2023/07/31 11:33:45;;;;;;;12.20;4.27;;;;;;;19.77;94.95;100022.13;5065010;28;20326;-58
2023/07/31 11:36:20;;;;;;;16.53;4.27;;;;;;;19.52;95.34;99998.81;5069804;28;20365;-60
2023/07/31 11:38:52;;;;;;;15.80;4.60;;;;;;;19.58;95.49;100018.81;5058428;28;20364;-59
2023/07/31 11:41:28;;;;;;;21.17;4.73;;;;;;;19.49;95.36;100014.88;5068876;28;20643;-61
2023/07/31 11:44:14;;;;;;;15.75;3.70;;;;;;;19.31;95.42;100022.09;5060201;28;20801;-61
2023/07/31 11:46:59;;;;;;;15.80;3.60;;;;;;;19.33;96.18;100020.19;5059517;28;20695;-61
2023/07/31 11:49:33;;;;;;;7.30;3.53;;;;;;;19.31;96.09;100032.69;5069264;28;20289;-61
2023/07/31 11:52:07;;;;;;;14.10;3.80;;;;;;;19.33;95.67;100033.44;5059400;28;20387;-60
2023/07/31 11:54:40;;;;;;;9.87;3.50;;;;;;;19.23;95.53;100019.00;5070246;28;20278;-59
2023/07/31 11:57:24;;;;;;;21.97;4.30;;;;;;;19.22;95.42;100022.63;5059056;28;20436;-59
2023/07/31 12:00:09;;;;;;;11.77;4.03;;;;;;;19.12;95.60;100024.03;5057829;28;20278;-62
2023/07/31 12:02:41;;;;;;;12.40;3.60;;;;;;;19.10;95.84;100024.16;5068898;28;20286;-60